createdAt,value
2019-02-10T00:01:56.247Z,100089.69
2019-02-10T00:04:23.997Z,100086.30
2019-02-10T00:06:52.233Z,100085.03
2019-02-10T00:09:20.023Z,100083.95
2019-02-10T00:11:48.178Z,100078.16
2019-02-10T00:14:16.111Z,100077.44
2019-02-10T00:16:44.012Z,100075.27
2019-02-10T00:19:11.767Z,100072.66
2019-02-10T00:21:39.575Z,100076.27
2019-02-10T00:24:07.324Z,100073.92
2019-02-10T00:26:35.164Z,100061.98
2019-02-10T00:29:02.920Z,100065.55
2019-02-10T00:31:30.650Z,100064.72
2019-02-10T00:33:58.701Z,100067.47
2019-02-10T00:36:32.921Z,100065.60
2019-02-10T00:38:55.928Z,100068.33
2019-02-10T00:41:23.692Z,100063.91
2019-02-10T00:43:51.799Z,100059.84
2019-02-10T00:46:19.680Z,100058.91
2019-02-10T00:48:47.416Z,100052.46
2019-02-10T00:51:15.153Z,100053.89
2019-02-10T00:53:43.812Z,100051.80
2019-02-10T00:56:11.644Z,100058.11
2019-02-10T00:58:39.756Z,100056.63
2019-02-10T01:01:07.660Z,100047.61
2019-02-10T01:03:35.393Z,100055.02
2019-02-10T01:06:03.334Z,100050.08
2019-02-10T01:08:31.126Z,100037.25
2019-02-10T01:10:58.951Z,100039.72
2019-02-10T01:13:26.881Z,100034.57
2019-02-10T01:15:54.832Z,100032.77
2019-02-10T01:18:22.644Z,100019.48
2019-02-10T01:20:50.425Z,100037.32
2019-02-10T01:23:18.224Z,100034.89
2019-02-10T01:25:46.067Z,100032.25
2019-02-10T01:28:13.805Z,100033.23
2019-02-10T01:30:41.817Z,100017.17
2019-02-10T01:33:09.629Z,100025.34
2019-02-10T01:35:37.465Z,100024.59
2019-02-10T01:38:05.193Z,100013.91
2019-02-10T01:40:32.953Z,100012.03
2019-02-10T01:43:00.728Z,99943.06
2019-02-10T01:45:28.532Z,100017.83
2019-02-10T01:47:56.284Z,100018.60
2019-02-10T01:50:24.027Z,100015.56
2019-02-10T01:52:51.768Z,100015.46
2019-02-10T01:55:19.495Z,100010.92
2019-02-10T01:57:47.263Z,100004.82
2019-02-10T02:00:15.472Z,99994.91
2019-02-10T02:02:43.276Z,99993.47
2019-02-10T02:05:11.112Z,99994.25
2019-02-10T02:07:38.954Z,99988.42
2019-02-10T02:10:07.449Z,99988.67
2019-02-10T02:12:35.213Z,99975.17
2019-02-10T02:15:02.951Z,99971.05
2019-02-10T02:17:30.750Z,99970.27
2019-02-10T02:19:58.484Z,99962.59
2019-02-10T02:22:26.227Z,99964.56
2019-02-10T02:24:53.969Z,99947.23
2019-02-10T02:27:21.869Z,99946.63
2019-02-10T02:29:49.606Z,99939.81
2019-02-10T02:32:17.353Z,99940.11
2019-02-10T02:34:45.119Z,99943.81
2019-02-10T02:54:00.271Z,99921.70
2019-02-10T02:56:45.853Z,99913.56
2019-02-10T02:59:28.845Z,99914.48
2019-02-10T03:09:00.766Z,99896.34
2019-02-10T03:18:07.041Z,99886.52
2019-02-10T03:30:01.394Z,99870.73
2019-02-10T03:36:09.010Z,99857.48
2019-02-10T03:39:01.143Z,99851.88
2019-02-10T03:47:57.316Z,99831.82
2019-02-10T03:54:00.339Z,99821.72
2019-02-10T04:02:58.137Z,99814.82
2019-02-10T04:05:26.095Z,99811.87
2019-02-10T04:14:50.104Z,99807.85
2019-02-10T04:33:08.972Z,99781.77
2019-02-10T04:35:36.696Z,99770.44
2019-02-10T04:38:04.820Z,99769.04
2019-02-10T04:40:32.567Z,99766.70
2019-02-10T04:43:00.298Z,99759.86
2019-02-10T04:45:28.139Z,99751.11
2019-02-10T04:47:55.873Z,99749.62
2019-02-10T04:50:23.689Z,99744.19
2019-02-10T04:52:51.537Z,99739.95
2019-02-10T04:55:19.388Z,99733.02
2019-02-10T04:57:47.113Z,99726.45
2019-02-10T05:00:14.947Z,99721.55
2019-02-10T05:02:42.956Z,99715.35
2019-02-10T05:05:10.685Z,99703.81
2019-02-10T05:07:38.489Z,99707.59
2019-02-10T05:10:06.448Z,99697.88
2019-02-10T05:12:34.188Z,99694.91
2019-02-10T05:15:02.004Z,99685.84
2019-02-10T05:17:29.818Z,99683.01
2019-02-10T05:19:57.778Z,99681.83
2019-02-10T05:22:25.726Z,99675.02
2019-02-10T05:24:53.474Z,99669.55
2019-02-10T05:27:21.302Z,99664.77
2019-02-10T05:29:49.093Z,99660.72
2019-02-10T05:32:16.857Z,99663.74
2019-02-10T05:34:44.718Z,99652.84
2019-02-10T05:37:12.510Z,99651.36
2019-02-10T05:39:40.252Z,99649.41
2019-02-10T05:42:08.026Z,99644.66
2019-02-10T05:44:35.764Z,99640.53
2019-02-10T05:47:03.585Z,99633.73
2019-02-10T05:49:31.404Z,99636.34
2019-02-10T05:51:59.333Z,99623.72
2019-02-10T05:54:27.121Z,99618.37
2019-02-10T05:56:54.901Z,99617.34
2019-02-10T05:59:22.631Z,99606.52
2019-02-10T06:02:20.712Z,99608.66
2019-02-10T06:04:48.504Z,99598.41
2019-02-10T06:07:16.793Z,99597.77
2019-02-10T06:09:44.671Z,99598.30
2019-02-10T06:12:12.457Z,99590.27
2019-02-10T06:14:40.272Z,99582.78
2019-02-10T06:17:08.046Z,99582.58
2019-02-10T06:19:35.913Z,99572.12
2019-02-10T06:22:03.687Z,99568.34
2019-02-10T06:24:31.607Z,99559.31
2019-02-10T06:26:59.437Z,99563.83
2019-02-10T06:29:27.327Z,99559.62
2019-02-10T06:31:55.234Z,99550.67
2019-02-10T06:34:23.068Z,99538.51
2019-02-10T06:36:50.884Z,99546.23
2019-02-10T06:39:18.622Z,99540.09
2019-02-10T06:41:46.411Z,99531.18
2019-02-10T06:44:14.169Z,99515.70
2019-02-10T06:46:41.899Z,99513.25
2019-02-10T06:49:09.670Z,99508.85
2019-02-10T06:51:37.465Z,99505.77
2019-02-10T06:54:05.204Z,99509.59
2019-02-10T06:56:32.971Z,99507.80
2019-02-10T06:59:00.696Z,99502.16
2019-02-10T07:01:34.950Z,99504.08
2019-02-10T07:04:07.567Z,99504.08
2019-02-10T07:06:35.386Z,99490.63
2019-02-10T07:09:03.466Z,99491.17
2019-02-10T07:11:31.252Z,99480.13
2019-02-10T07:13:59.954Z,99478.45
2019-02-10T07:16:28.757Z,99472.44
2019-02-10T07:19:14.632Z,99473.61
2019-02-10T07:21:44.277Z,99460.77
2019-02-10T07:24:46.496Z,99461.86
2019-02-10T07:27:18.761Z,99450.36
2019-02-10T07:30:04.609Z,99451.07
2019-02-10T07:32:40.372Z,99440.70
2019-02-10T07:35:33.271Z,99437.81
2019-02-10T07:38:03.271Z,99437.60
2019-02-10T07:40:50.466Z,99427.53
2019-02-10T07:43:31.621Z,99421.77
2019-02-10T07:46:12.769Z,99410.95
2019-02-10T07:48:47.206Z,99407.64
2019-02-10T07:51:20.714Z,99397.02
2019-02-10T07:53:57.637Z,99393.77
2019-02-10T07:56:30.359Z,99382.98
2019-02-10T07:59:12.697Z,99376.25
2019-02-10T08:01:56.119Z,99372.36
2019-02-10T08:04:55.494Z,99366.39
2019-02-10T08:07:31.058Z,99354.36
2019-02-10T08:10:20.577Z,99348.80
2019-02-10T08:13:03.758Z,99346.08
2019-02-10T08:16:06.025Z,99339.31
2019-02-10T08:18:50.015Z,99323.02
2019-02-10T08:21:27.016Z,99312.52
2019-02-10T08:24:07.012Z,99310.02
2019-02-10T08:26:40.687Z,99303.16
2019-02-10T08:29:17.218Z,99295.72
2019-02-10T08:32:03.191Z,99286.83
2019-02-10T08:34:53.039Z,99281.81
2019-02-10T08:37:26.826Z,99270.25
2019-02-10T08:40:12.957Z,99265.36
2019-02-10T08:42:48.913Z,99264.48
2019-02-10T08:45:25.799Z,99248.58
2019-02-10T08:48:19.825Z,99240.68
2019-02-10T08:51:10.181Z,99222.64
2019-02-10T08:53:39.399Z,99223.92
2019-02-10T08:56:07.259Z,99213.28
2019-02-10T08:58:35.020Z,99206.92
2019-02-10T09:01:02.790Z,99197.42
2019-02-10T09:03:30.790Z,99194.36
2019-02-10T09:05:58.677Z,99184.87
2019-02-10T09:08:26.662Z,99173.02
2019-02-10T09:10:54.425Z,99178.98
2019-02-10T09:13:22.687Z,99161.95
2019-02-10T09:15:50.524Z,99140.60
2019-02-10T09:18:18.590Z,99133.86
2019-02-10T09:20:46.944Z,99125.02
2019-02-10T09:23:14.769Z,99118.52
2019-02-10T09:25:42.642Z,99109.30
2019-02-10T09:28:10.401Z,99097.34
2019-02-10T09:30:38.406Z,99088.86
2019-02-10T09:33:06.634Z,99084.70
2019-02-10T09:35:34.614Z,99075.27
2019-02-10T09:38:03.797Z,99064.89
2019-02-10T09:40:35.062Z,99063.92
2019-02-10T09:43:03.274Z,99048.64
2019-02-10T09:45:31.196Z,99039.30
2019-02-10T09:48:01.195Z,99023.38
2019-02-10T09:50:29.356Z,99009.30
2019-02-10T09:52:58.004Z,98999.94
2019-02-10T09:55:25.856Z,98991.05
2019-02-10T09:57:53.789Z,98973.66
2019-02-10T10:00:21.650Z,98976.65
2019-02-10T10:02:49.384Z,98953.27
2019-02-10T10:05:17.136Z,98956.36
2019-02-10T10:07:44.955Z,98943.45
2019-02-10T10:10:12.830Z,98933.83
2019-02-10T10:12:40.557Z,98937.14
2019-02-10T10:15:09.260Z,98928.27
2019-02-10T10:17:37.010Z,98916.84
2019-02-10T10:20:05.336Z,98913.22
2019-02-10T10:22:33.371Z,98910.31
2019-02-10T10:25:01.173Z,98906.77
2019-02-10T10:27:30.003Z,98892.61
2019-02-10T10:29:57.804Z,98894.88
2019-02-10T10:32:25.573Z,98893.65
2019-02-10T10:34:53.302Z,98887.66
2019-02-10T10:37:21.069Z,98884.96
2019-02-10T10:39:48.852Z,98869.86
2019-02-10T10:42:16.757Z,98856.51
2019-02-10T10:44:44.552Z,98851.77
2019-02-10T10:47:12.499Z,98839.42
2019-02-10T10:49:40.328Z,98834.55
2019-02-10T10:52:08.107Z,98816.95
2019-02-10T10:54:42.684Z,98808.52
2019-02-10T10:57:05.582Z,98785.79
2019-02-10T10:59:33.360Z,98772.27
2019-02-10T11:02:01.280Z,98780.91
2019-02-10T11:04:29.056Z,98778.70
2019-02-10T11:06:57.067Z,98761.94
2019-02-10T11:09:25.087Z,98748.81
2019-02-10T11:11:52.949Z,98740.80
2019-02-10T11:14:20.948Z,98733.80
2019-02-10T11:16:49.099Z,98732.05
2019-02-10T11:19:17.273Z,98720.48
2019-02-10T11:21:45.126Z,98697.95
2019-02-10T11:24:13.033Z,98689.73
2019-02-10T11:26:40.921Z,98668.14
2019-02-10T11:29:08.734Z,98678.97
2019-02-10T11:31:36.479Z,98664.97
2019-02-10T11:34:04.260Z,98661.80
2019-02-10T11:36:32.161Z,98653.24
2019-02-10T11:39:00.138Z,98642.59
2019-02-10T11:41:28.092Z,98643.72
2019-02-10T11:43:55.991Z,98635.84
2019-02-10T11:46:23.808Z,98629.22
2019-02-10T11:48:51.619Z,98618.68
2019-02-10T11:51:19.425Z,98615.07
2019-02-10T11:53:47.270Z,98607.68
2019-02-10T11:56:15.061Z,98610.35
2019-02-10T11:58:42.983Z,98607.21
2019-02-10T12:01:10.765Z,98595.64
2019-02-10T12:03:38.516Z,98588.79
2019-02-10T12:06:06.256Z,98585.20
2019-02-10T12:08:35.824Z,98580.73
2019-02-10T12:11:03.508Z,98573.20
2019-02-10T12:13:31.458Z,98566.79
2019-02-10T12:15:59.285Z,98554.95
2019-02-10T12:18:27.248Z,98539.14
2019-02-10T12:20:55.276Z,98541.78
2019-02-10T12:23:23.577Z,98531.69
2019-02-10T12:25:51.429Z,98523.23
2019-02-10T12:28:19.289Z,98512.73
2019-02-10T12:30:47.086Z,98504.70
2019-02-10T12:33:15.048Z,98498.48
2019-02-10T12:35:42.816Z,98480.64
2019-02-10T12:38:10.657Z,98471.55
2019-02-10T12:40:38.860Z,98467.41
2019-02-10T12:43:06.707Z,98462.09
2019-02-10T12:45:34.651Z,98456.56
2019-02-10T12:48:02.383Z,98447.78
2019-02-10T12:50:30.711Z,98444.83
2019-02-10T12:52:58.606Z,98438.81
2019-02-10T12:55:27.338Z,98433.59
2019-02-10T12:57:55.542Z,98427.25
2019-02-10T13:00:23.408Z,98424.70
2019-02-10T13:02:52.259Z,98415.09
2019-02-10T13:05:20.085Z,98409.94
2019-02-10T13:07:47.917Z,98393.82
2019-02-10T13:10:18.170Z,98397.14
2019-02-10T13:12:45.625Z,98390.05
2019-02-10T13:15:13.495Z,98385.28
2019-02-10T13:17:41.439Z,98378.70
2019-02-10T13:20:09.259Z,98374.51
2019-02-10T13:22:37.010Z,98365.62
2019-02-10T13:25:05.044Z,98359.80
2019-02-10T13:27:32.794Z,98359.34
2019-02-10T13:30:00.530Z,98350.85
2019-02-10T13:32:28.331Z,98350.57
2019-02-10T13:34:56.066Z,98339.87
2019-02-10T13:37:25.118Z,98333.30
2019-02-10T13:39:52.893Z,98323.25
2019-02-10T13:42:20.701Z,98327.30
2019-02-10T13:44:48.480Z,98322.63
2019-02-10T13:47:16.248Z,98299.28
2019-02-10T13:49:44.141Z,98321.19
2019-02-10T13:52:11.872Z,98320.61
2019-02-10T13:54:39.668Z,98317.58
2019-02-10T13:57:07.442Z,98322.53
2019-02-10T13:59:35.283Z,98314.94
2019-02-10T14:02:03.236Z,98305.49
2019-02-10T14:04:30.984Z,98304.55
2019-02-10T14:06:58.741Z,98303.02
2019-02-10T14:09:26.561Z,98276.13
2019-02-10T14:11:54.305Z,98295.16
2019-02-10T14:14:22.291Z,98295.94
2019-02-10T14:16:50.054Z,98283.72
2019-02-10T14:19:17.849Z,98286.97
2019-02-10T14:21:45.604Z,98277.89
2019-02-10T14:24:13.409Z,98287.33
2019-02-10T14:26:41.254Z,98280.64
2019-02-10T14:29:08.976Z,98272.42
2019-02-10T14:31:36.779Z,98273.01
2019-02-10T14:34:04.520Z,98232.57
2019-02-10T14:36:32.265Z,98274.16
2019-02-10T14:39:00.036Z,98270.13
2019-02-10T14:41:27.776Z,98265.16
2019-02-10T14:43:55.596Z,98261.55
2019-02-10T14:46:23.411Z,98262.50
2019-02-10T14:48:51.140Z,98265.66
2019-02-10T14:51:18.911Z,98256.30
2019-02-10T14:53:46.652Z,98253.53
2019-02-10T14:56:14.402Z,98258.47
2019-02-10T14:58:43.531Z,98256.67
2019-02-10T15:01:11.281Z,98256.09
2019-02-10T15:03:39.015Z,98249.78
2019-02-10T15:06:06.772Z,98232.84
2019-02-10T15:08:34.900Z,98257.62
2019-02-10T15:11:02.725Z,98259.14
2019-02-10T15:13:30.694Z,98260.31
2019-02-10T15:15:58.649Z,98261.16
2019-02-10T15:18:26.461Z,98257.13
2019-02-10T15:20:54.201Z,98243.67
2019-02-10T15:23:22.093Z,98221.78
2019-02-10T15:25:49.957Z,98246.91
2019-02-10T15:28:17.683Z,98242.81
2019-02-10T15:30:45.408Z,98235.45
2019-02-10T15:33:13.172Z,98237.34
2019-02-10T15:35:40.921Z,98235.92
2019-02-10T15:38:08.717Z,98240.05
2019-02-10T15:40:36.443Z,98243.55
2019-02-10T15:43:04.248Z,98242.32
2019-02-10T15:45:32.050Z,98247.67
2019-02-10T15:47:59.813Z,98237.83
2019-02-10T15:50:27.625Z,98246.34
2019-02-10T15:52:55.867Z,98244.25
2019-02-10T15:55:23.642Z,98242.50
2019-02-10T15:57:51.408Z,98241.55
2019-02-10T16:00:20.321Z,98235.23
2019-02-10T16:02:48.068Z,98238.01
2019-02-10T16:05:15.820Z,98240.13
2019-02-10T16:07:43.843Z,98233.80
2019-02-10T16:10:11.815Z,98240.59
2019-02-10T16:12:39.780Z,98236.21
2019-02-10T16:15:07.759Z,98225.31
2019-02-10T16:17:35.581Z,98221.93
2019-02-10T16:20:03.529Z,98228.34
2019-02-10T16:22:31.701Z,98229.09
2019-02-10T16:24:59.423Z,98229.69
2019-02-10T16:27:27.157Z,98233.53
2019-02-10T16:29:54.980Z,98228.34
2019-02-10T16:32:22.760Z,98234.38
2019-02-10T16:34:50.518Z,98230.83
2019-02-10T16:37:18.264Z,98234.96
2019-02-10T16:39:46.139Z,98227.96
2019-02-10T16:42:14.288Z,98226.38
2019-02-10T16:44:42.104Z,98222.89
2019-02-10T16:47:09.891Z,98223.95
2019-02-10T16:49:37.637Z,98221.47
2019-02-10T16:52:05.382Z,98223.75
2019-02-10T16:54:33.135Z,98216.86
2019-02-10T16:57:00.931Z,98228.25
2019-02-10T16:59:28.919Z,98231.59
2019-02-10T17:01:57.485Z,98233.20
2019-02-10T17:04:25.573Z,98237.03
2019-02-10T17:06:53.476Z,98236.36
2019-02-10T17:09:21.208Z,98242.30
2019-02-10T17:11:50.026Z,98234.55
2019-02-10T17:14:18.196Z,98230.75
2019-02-10T17:16:46.080Z,98196.70
2019-02-10T17:19:13.855Z,98240.37
2019-02-10T17:21:41.637Z,98238.17
2019-02-10T17:24:09.384Z,98202.27
2019-02-10T17:26:37.193Z,98230.73
2019-02-10T17:29:05.096Z,98233.58
2019-02-10T17:31:32.908Z,98233.69
2019-02-10T17:34:00.672Z,98235.77
2019-02-10T17:36:28.532Z,98233.98
2019-02-10T17:38:56.303Z,98240.22
2019-02-10T17:41:32.853Z,98248.80
2019-02-10T17:44:00.727Z,98250.44
2019-02-10T17:46:28.535Z,98243.66
2019-02-10T17:48:56.392Z,98252.08
2019-02-10T17:51:24.378Z,98249.70
2019-02-10T17:53:52.251Z,98245.49
2019-02-10T17:56:21.225Z,98256.19
2019-02-10T17:58:49.160Z,98265.38
2019-02-10T18:01:16.891Z,98256.94
2019-02-10T18:03:44.617Z,98266.14
2019-02-10T18:06:12.358Z,98231.23
2019-02-10T18:08:40.099Z,98257.03
2019-02-10T18:11:07.867Z,98254.77
2019-02-10T18:13:35.669Z,98259.23
2019-02-10T18:16:15.769Z,98267.27
2019-02-10T18:18:56.255Z,98268.15
2019-02-10T18:21:32.717Z,98249.00
2019-02-10T18:24:13.131Z,98266.03
2019-02-10T18:27:06.192Z,98265.17
2019-02-10T18:29:56.034Z,98271.85
2019-02-10T18:32:31.564Z,98267.96
2019-02-10T18:35:15.881Z,98268.61
2019-02-10T18:37:51.933Z,98267.27
2019-02-10T18:40:38.951Z,98267.96
2019-02-10T18:43:17.408Z,98267.95
2019-02-10T18:46:01.968Z,98270.53
2019-02-10T18:48:57.743Z,98274.15
2019-02-10T18:51:44.912Z,98272.53
2019-02-10T18:54:34.532Z,98279.41
2019-02-10T18:57:09.924Z,98269.47
2019-02-10T18:59:50.055Z,98278.34
2019-02-10T19:02:40.393Z,98275.86
2019-02-10T19:05:27.391Z,98281.81
2019-02-10T19:08:04.380Z,98293.92
2019-02-10T19:11:06.548Z,98296.59
2019-02-10T19:13:48.880Z,98292.88
2019-02-10T19:16:25.688Z,98305.02
2019-02-10T19:19:00.567Z,98302.31
2019-02-10T19:21:44.610Z,98299.09
2019-02-10T19:24:24.501Z,98306.44
2019-02-10T19:27:26.689Z,98306.62
2019-02-10T19:30:09.210Z,98290.20
2019-02-10T19:32:44.650Z,98314.20
2019-02-10T19:35:36.235Z,98320.10
2019-02-10T19:38:22.209Z,98323.25
2019-02-10T19:41:09.078Z,98332.17
2019-02-10T19:43:55.680Z,98329.58
2019-02-10T19:46:45.482Z,98345.45
2019-02-10T19:49:25.656Z,98342.37
2019-02-10T19:52:03.140Z,98350.61
2019-02-10T19:54:52.635Z,98352.03
2019-02-10T19:57:38.119Z,98367.98
2019-02-10T20:00:28.061Z,98377.27
2019-02-10T20:03:06.090Z,98372.50
2019-02-10T20:05:53.062Z,98383.67
2019-02-10T20:08:32.854Z,98398.27
2019-02-10T20:11:28.674Z,98412.42
2019-02-10T20:14:05.659Z,98427.97
2019-02-10T20:16:51.241Z,98414.80
2019-02-10T20:19:41.166Z,98456.27
2019-02-10T20:22:40.136Z,98467.75
2019-02-10T20:25:13.954Z,98481.65
2019-02-10T20:28:01.813Z,98493.56
2019-02-10T20:30:48.723Z,98502.66
2019-02-10T20:33:44.633Z,98514.52
2019-02-10T20:36:22.285Z,98524.34
2019-02-10T20:39:01.104Z,98548.97
2019-02-10T20:41:35.594Z,98561.16
2019-02-10T20:44:28.096Z,98567.63
2019-02-10T20:47:03.092Z,98583.16
2019-02-10T20:49:44.224Z,98601.41
2019-02-10T20:52:30.173Z,98610.03
2019-02-10T20:55:14.645Z,98619.28
2019-02-10T20:57:57.954Z,98641.94
2019-02-10T21:00:43.598Z,98648.12
2019-02-10T21:03:17.664Z,98661.81
2019-02-10T21:06:01.169Z,98686.27
2019-02-10T21:08:43.292Z,98694.11
2019-02-10T21:11:28.958Z,98709.45
2019-02-10T21:14:07.177Z,98718.58
2019-02-10T21:16:49.894Z,98712.89
2019-02-10T21:19:36.735Z,98745.70
2019-02-10T21:22:13.388Z,98741.91
2019-02-10T21:24:58.830Z,98761.25
2019-02-10T21:27:55.008Z,98779.83
2019-02-10T21:30:48.029Z,98789.19
2019-02-10T21:33:34.869Z,98795.61
2019-02-10T21:36:30.803Z,98811.34
2019-02-10T21:39:16.736Z,98829.08
2019-02-10T21:41:56.012Z,98838.09
2019-02-10T21:44:32.145Z,98850.60
2019-02-10T21:47:14.409Z,98860.70
2019-02-10T21:49:43.173Z,98870.67
2019-02-10T21:52:10.920Z,98874.48
2019-02-10T21:54:38.832Z,98879.86
2019-02-10T21:57:06.609Z,98885.92
2019-02-10T21:59:34.366Z,98892.39
2019-02-10T22:02:02.122Z,98901.08
2019-02-10T22:04:29.928Z,98904.91
2019-02-10T22:06:57.756Z,98914.89
2019-02-10T22:09:25.604Z,98915.77
2019-02-10T22:11:53.469Z,98919.23
2019-02-10T22:14:21.322Z,98938.14
2019-02-10T22:16:49.204Z,98941.52
2019-02-10T22:19:16.941Z,98954.74
2019-02-10T22:21:44.688Z,98960.59
2019-02-10T22:24:12.544Z,98966.97
2019-02-10T22:26:40.355Z,98966.96
2019-02-10T22:29:08.136Z,98944.02
2019-02-10T22:31:35.998Z,98978.75
2019-02-10T22:34:03.725Z,98986.80
2019-02-10T22:36:31.500Z,98991.83
2019-02-10T22:38:59.615Z,98999.56
2019-02-10T22:41:27.368Z,99003.23
2019-02-10T22:43:55.176Z,99010.53
2019-02-10T22:46:22.981Z,99025.34
2019-02-10T22:48:50.732Z,99030.80
2019-02-10T22:51:18.514Z,99035.70
2019-02-10T22:53:46.337Z,99041.06
2019-02-10T22:56:14.079Z,99047.16
2019-02-10T22:58:41.828Z,99046.77
2019-02-10T23:01:09.958Z,99064.64
2019-02-10T23:03:37.762Z,99062.65
2019-02-10T23:06:05.551Z,99062.70
2019-02-10T23:08:33.298Z,99089.40
2019-02-10T23:11:01.032Z,99097.69
2019-02-10T23:13:28.791Z,99110.86
2019-02-10T23:15:56.587Z,99117.16
2019-02-10T23:18:24.519Z,99127.62
2019-02-10T23:20:52.268Z,99129.17
2019-02-10T23:23:20.036Z,99146.15
2019-02-10T23:25:47.783Z,99151.09
2019-02-10T23:28:15.623Z,99170.80
2019-02-10T23:30:43.459Z,99170.83
2019-02-10T23:33:11.279Z,99183.70
2019-02-10T23:35:39.111Z,99191.45
2019-02-10T23:38:06.956Z,99199.61
2019-02-10T23:40:34.683Z,99214.10
2019-02-10T23:43:02.572Z,99225.84
2019-02-10T23:45:30.460Z,99234.77
2019-02-10T23:47:58.204Z,99239.86
2019-02-10T23:50:26.016Z,99244.97
2019-02-10T23:52:53.848Z,99251.94
2019-02-10T23:55:21.625Z,99261.17
2019-02-10T23:57:49.450Z,99271.83
